sensor_id;sensor_type;location;lat;lon;timestamp;pressure;altitude;pressure_sealevel;temperature;humidity
58698;BME280;44475;53.206;-6.106;2023-02-12T00:01:34;103553.91;;;23.64;45.76
58698;BME280;44475;53.206;-6.106;2023-02-12T00:04:00;103541.75;;;23.70;45.97
58698;BME280;44475;53.206;-6.106;2023-02-12T00:06:27;103550.03;;;23.68;45.59
58698;BME280;44475;53.206;-6.106;2023-02-12T00:08:56;103546.69;;;23.62;45.79
58698;BME280;44475;53.206;-6.106;2023-02-12T00:11:31;103548.94;;;23.73;45.47
58698;BME280;44475;53.206;-6.106;2023-02-12T00:13:58;103552.78;;;23.68;45.90
58698;BME280;44475;53.206;-6.106;2023-02-12T00:16:28;103551.53;;;23.76;45.57
58698;BME280;44475;53.206;-6.106;2023-02-12T00:18:55;103568.09;;;23.73;45.64
58698;BME280;44475;53.206;-6.106;2023-02-12T00:21:22;103558.63;;;23.80;45.55
58698;BME280;44475;53.206;-6.106;2023-02-12T00:23:49;103559.25;;;23.67;45.60
58698;BME280;44475;53.206;-6.106;2023-02-12T00:26:17;103554.72;;;23.66;45.67
58698;BME280;44475;53.206;-6.106;2023-02-12T00:28:48;103548.28;;;23.67;45.56
58698;BME280;44475;53.206;-6.106;2023-02-12T00:31:18;103551.38;;;23.79;45.59
58698;BME280;44475;53.206;-6.106;2023-02-12T00:33:45;103548.75;;;23.77;45.27
58698;BME280;44475;53.206;-6.106;2023-02-12T00:36:21;103559.06;;;23.71;45.54
58698;BME280;44475;53.206;-6.106;2023-02-12T00:38:50;103545.31;;;23.72;45.58
58698;BME280;44475;53.206;-6.106;2023-02-12T00:41:16;103561.22;;;23.64;45.82
58698;BME280;44475;53.206;-6.106;2023-02-12T00:43:43;103553.66;;;23.69;45.67
58698;BME280;44475;53.206;-6.106;2023-02-12T00:46:09;103546.13;;;23.74;45.36
58698;BME280;44475;53.206;-6.106;2023-02-12T00:48:36;103542.72;;;23.69;45.38
58698;BME280;44475;53.206;-6.106;2023-02-12T00:51:03;103548.00;;;23.74;45.67
58698;BME280;44475;53.206;-6.106;2023-02-12T00:53:30;103537.56;;;23.63;45.64
58698;BME280;44475;53.206;-6.106;2023-02-12T00:55:59;103529.78;;;23.73;45.57
58698;BME280;44475;53.206;-6.106;2023-02-12T00:58:26;103537.59;;;23.61;45.83
58698;BME280;44475;53.206;-6.106;2023-02-12T01:00:53;103541.50;;;23.55;45.93
58698;BME280;44475;53.206;-6.106;2023-02-12T01:03:20;103529.84;;;23.71;45.57
58698;BME280;44475;53.206;-6.106;2023-02-12T01:05:46;103538.09;;;23.50;46.19
58698;BME280;44475;53.206;-6.106;2023-02-12T01:08:13;103527.84;;;23.55;45.94
58698;BME280;44475;53.206;-6.106;2023-02-12T01:10:41;103526.94;;;23.55;46.02
58698;BME280;44475;53.206;-6.106;2023-02-12T01:13:13;103518.56;;;23.58;45.99
58698;BME280;44475;53.206;-6.106;2023-02-12T01:15:41;103508.94;;;23.49;46.37
58698;BME280;44475;53.206;-6.106;2023-02-12T01:18:07;103518.44;;;23.61;46.11
58698;BME280;44475;53.206;-6.106;2023-02-12T01:20:33;103516.31;;;23.68;45.89
58698;BME280;44475;53.206;-6.106;2023-02-12T01:23:00;103512.13;;;23.59;46.13
58698;BME280;44475;53.206;-6.106;2023-02-12T01:25:26;103512.53;;;23.71;45.96
58698;BME280;44475;53.206;-6.106;2023-02-12T01:27:54;103504.81;;;23.59;45.95
58698;BME280;44475;53.206;-6.106;2023-02-12T01:30:21;103509.41;;;23.78;45.73
58698;BME280;44475;53.206;-6.106;2023-02-12T01:32:50;103501.13;;;23.80;45.63
58698;BME280;44475;53.206;-6.106;2023-02-12T01:35:16;103506.97;;;23.53;46.27
58698;BME280;44475;53.206;-6.106;2023-02-12T01:37:43;103493.88;;;23.59;45.95
58698;BME280;44475;53.206;-6.106;2023-02-12T01:40:12;103499.34;;;23.59;46.17
58698;BME280;44475;53.206;-6.106;2023-02-12T01:42:39;103508.84;;;23.72;45.91
58698;BME280;44475;53.206;-6.106;2023-02-12T01:47:44;103500.41;;;23.57;46.12
58698;BME280;44475;53.206;-6.106;2023-02-12T01:50:16;103495.53;;;23.64;46.19
58698;BME280;44475;53.206;-6.106;2023-02-12T01:52:48;103502.53;;;23.69;45.85
58698;BME280;44475;53.206;-6.106;2023-02-12T01:55:17;103492.72;;;23.65;45.88
58698;BME280;44475;53.206;-6.106;2023-02-12T01:57:46;103494.06;;;23.76;45.76
58698;BME280;44475;53.206;-6.106;2023-02-12T02:00:15;103495.06;;;23.54;46.45
58698;BME280;44475;53.206;-6.106;2023-02-12T02:02:45;103498.31;;;23.62;46.06
58698;BME280;44475;53.206;-6.106;2023-02-12T02:05:21;103486.53;;;23.60;46.04
58698;BME280;44475;53.206;-6.106;2023-02-12T02:07:49;103496.50;;;23.63;46.00
58698;BME280;44475;53.206;-6.106;2023-02-12T02:10:15;103485.47;;;23.64;45.81
58698;BME280;44475;53.206;-6.106;2023-02-12T02:12:41;103481.84;;;23.64;45.86
58698;BME280;44475;53.206;-6.106;2023-02-12T02:15:27;103485.16;;;23.71;45.86
58698;BME280;44475;53.206;-6.106;2023-02-12T02:18:05;103485.34;;;23.67;45.92
58698;BME280;44475;53.206;-6.106;2023-02-12T02:32:23;103492.41;;;23.72;45.83
58698;BME280;44475;53.206;-6.106;2023-02-12T02:37:56;103483.16;;;23.55;46.19
58698;BME280;44475;53.206;-6.106;2023-02-12T02:40:40;103486.81;;;23.75;45.58
58698;BME280;44475;53.206;-6.106;2023-02-12T02:43:26;103479.03;;;23.65;45.78
58698;BME280;44475;53.206;-6.106;2023-02-12T02:46:04;103487.63;;;23.77;45.37
58698;BME280;44475;53.206;-6.106;2023-02-12T02:49:07;103482.28;;;23.54;46.22
58698;BME280;44475;53.206;-6.106;2023-02-12T02:51:41;103484.53;;;23.65;45.81
58698;BME280;44475;53.206;-6.106;2023-02-12T02:54:20;103485.47;;;23.64;45.78
58698;BME280;44475;53.206;-6.106;2023-02-12T02:56:50;103487.38;;;23.62;45.96
58698;BME280;44475;53.206;-6.106;2023-02-12T02:59:23;103493.31;;;23.72;45.69
58698;BME280;44475;53.206;-6.106;2023-02-12T03:02:05;103478.72;;;23.72;45.51
58698;BME280;44475;53.206;-6.106;2023-02-12T03:05:20;103477.34;;;23.63;46.05
58698;BME280;44475;53.206;-6.106;2023-02-12T03:07:45;103482.34;;;23.53;45.99
58698;BME280;44475;53.206;-6.106;2023-02-12T03:10:17;103478.63;;;23.54;46.04
58698;BME280;44475;53.206;-6.106;2023-02-12T03:12:55;103487.00;;;23.70;45.69
58698;BME280;44475;53.206;-6.106;2023-02-12T03:15:29;103481.53;;;23.70;45.52
58698;BME280;44475;53.206;-6.106;2023-02-12T03:17:58;103473.75;;;23.61;46.02
58698;BME280;44475;53.206;-6.106;2023-02-12T03:20:31;103474.00;;;23.56;46.02
58698;BME280;44475;53.206;-6.106;2023-02-12T03:23:05;103465.09;;;23.51;46.12
58698;BME280;44475;53.206;-6.106;2023-02-12T03:25:37;103461.50;;;23.69;45.75
58698;BME280;44475;53.206;-6.106;2023-02-12T03:28:08;103464.16;;;23.71;45.71
58698;BME280;44475;53.206;-6.106;2023-02-12T03:30:51;103460.78;;;23.66;45.61
58698;BME280;44475;53.206;-6.106;2023-02-12T03:36:49;103454.25;;;23.68;45.82
58698;BME280;44475;53.206;-6.106;2023-02-12T03:39:24;103453.63;;;23.81;45.41
58698;BME280;44475;53.206;-6.106;2023-02-12T03:42:04;103447.16;;;23.64;45.68
58698;BME280;44475;53.206;-6.106;2023-02-12T03:50:20;103450.91;;;23.62;46.01
58698;BME280;44475;53.206;-6.106;2023-02-12T03:52:51;103448.16;;;23.62;45.99
58698;BME280;44475;53.206;-6.106;2023-02-12T03:55:17;103451.44;;;23.70;45.54
58698;BME280;44475;53.206;-6.106;2023-02-12T03:57:56;103444.94;;;23.73;45.72
58698;BME280;44475;53.206;-6.106;2023-02-12T04:00:26;103451.50;;;23.68;45.90
58698;BME280;44475;53.206;-6.106;2023-02-12T04:02:53;103432.34;;;23.68;45.70
58698;BME280;44475;53.206;-6.106;2023-02-12T04:05:23;103445.75;;;23.75;45.75
58698;BME280;44475;53.206;-6.106;2023-02-12T04:07:50;103445.41;;;23.81;45.28
58698;BME280;44475;53.206;-6.106;2023-02-12T04:10:18;103445.34;;;23.83;45.40
58698;BME280;44475;53.206;-6.106;2023-02-12T04:12:59;103458.66;;;23.91;45.12
58698;BME280;44475;53.206;-6.106;2023-02-12T04:18:41;103446.38;;;23.80;45.27
58698;BME280;44475;53.206;-6.106;2023-02-12T04:24:18;103430.41;;;23.71;45.53
58698;BME280;44475;53.206;-6.106;2023-02-12T04:27:11;103429.25;;;23.76;45.54
58698;BME280;44475;53.206;-6.106;2023-02-12T04:30:12;103435.91;;;23.71;45.60
58698;BME280;44475;53.206;-6.106;2023-02-12T04:32:46;103435.81;;;23.72;45.59
58698;BME280;44475;53.206;-6.106;2023-02-12T04:35:33;103430.75;;;23.64;45.69
58698;BME280;44475;53.206;-6.106;2023-02-12T04:38:16;103435.06;;;23.68;45.70
58698;BME280;44475;53.206;-6.106;2023-02-12T04:40:45;103442.13;;;23.74;45.49
58698;BME280;44475;53.206;-6.106;2023-02-12T04:43:11;103431.38;;;23.69;45.60
58698;BME280;44475;53.206;-6.106;2023-02-12T04:45:38;103435.25;;;23.65;45.62
58698;BME280;44475;53.206;-6.106;2023-02-12T04:48:05;103446.38;;;23.80;45.38
58698;BME280;44475;53.206;-6.106;2023-02-12T04:50:40;103447.94;;;23.86;45.12
58698;BME280;44475;53.206;-6.106;2023-02-12T04:53:07;103446.44;;;23.78;45.43
58698;BME280;44475;53.206;-6.106;2023-02-12T04:55:33;103457.34;;;23.80;45.22
58698;BME280;44475;53.206;-6.106;2023-02-12T04:57:59;103448.22;;;23.79;45.46
58698;BME280;44475;53.206;-6.106;2023-02-12T05:00:26;103447.13;;;23.84;45.13
58698;BME280;44475;53.206;-6.106;2023-02-12T05:02:52;103449.13;;;23.80;45.25
58698;BME280;44475;53.206;-6.106;2023-02-12T05:05:20;103459.34;;;23.76;45.60
58698;BME280;44475;53.206;-6.106;2023-02-12T05:07:47;103451.06;;;23.78;45.54
58698;BME280;44475;53.206;-6.106;2023-02-12T05:10:14;103456.09;;;23.87;45.28
58698;BME280;44475;53.206;-6.106;2023-02-12T05:12:40;103457.94;;;23.87;45.35
58698;BME280;44475;53.206;-6.106;2023-02-12T05:15:07;103454.53;;;23.62;45.49
58698;BME280;44475;53.206;-6.106;2023-02-12T05:17:34;103448.69;;;23.70;45.38
58698;BME280;44475;53.206;-6.106;2023-02-12T05:20:00;103457.41;;;23.78;45.36
58698;BME280;44475;53.206;-6.106;2023-02-12T05:22:26;103455.28;;;23.85;45.26
58698;BME280;44475;53.206;-6.106;2023-02-12T05:24:53;103458.22;;;23.81;45.47
58698;BME280;44475;53.206;-6.106;2023-02-12T05:27:19;103459.84;;;23.85;45.19
58698;BME280;44475;53.206;-6.106;2023-02-12T05:29:45;103451.56;;;23.86;44.99
58698;BME280;44475;53.206;-6.106;2023-02-12T05:32:11;103454.53;;;23.82;45.00
58698;BME280;44475;53.206;-6.106;2023-02-12T05:34:38;103449.94;;;23.82;45.18
58698;BME280;44475;53.206;-6.106;2023-02-12T05:37:04;103450.97;;;23.79;45.27
58698;BME280;44475;53.206;-6.106;2023-02-12T05:39:30;103446.38;;;23.80;45.19
58698;BME280;44475;53.206;-6.106;2023-02-12T05:41:57;103450.31;;;23.74;45.19
58698;BME280;44475;53.206;-6.106;2023-02-12T05:44:23;103450.41;;;23.73;45.40
58698;BME280;44475;53.206;-6.106;2023-02-12T05:46:49;103439.94;;;23.81;45.11
58698;BME280;44475;53.206;-6.106;2023-02-12T05:49:15;103446.16;;;23.85;45.19
58698;BME280;44475;53.206;-6.106;2023-02-12T05:51:42;103443.91;;;23.75;45.47
58698;BME280;44475;53.206;-6.106;2023-02-12T05:54:09;103441.50;;;23.87;44.94
58698;BME280;44475;53.206;-6.106;2023-02-12T05:56:41;103447.69;;;23.91;45.06
58698;BME280;44475;53.206;-6.106;2023-02-12T05:59:12;103441.50;;;23.87;45.13
58698;BME280;44475;53.206;-6.106;2023-02-12T06:01:41;103446.91;;;23.88;45.25
58698;BME280;44475;53.206;-6.106;2023-02-12T06:04:16;103445.50;;;23.79;45.09
58698;BME280;44475;53.206;-6.106;2023-02-12T06:06:43;103447.53;;;23.76;45.22
58698;BME280;44475;53.206;-6.106;2023-02-12T06:09:11;103451.84;;;23.80;45.19
58698;BME280;44475;53.206;-6.106;2023-02-12T06:11:38;103443.72;;;23.78;45.23
58698;BME280;44475;53.206;-6.106;2023-02-12T06:14:05;103438.69;;;23.88;45.03
58698;BME280;44475;53.206;-6.106;2023-02-12T06:16:33;103436.72;;;23.73;45.59
58698;BME280;44475;53.206;-6.106;2023-02-12T06:19:02;103432.78;;;23.78;45.23
58698;BME280;44475;53.206;-6.106;2023-02-12T06:21:30;103432.47;;;23.85;45.34
58698;BME280;44475;53.206;-6.106;2023-02-12T06:23:56;103435.44;;;23.80;45.17
58698;BME280;44475;53.206;-6.106;2023-02-12T06:26:23;103433.22;;;23.88;45.10
58698;BME280;44475;53.206;-6.106;2023-02-12T06:28:50;103438.25;;;23.78;45.17
58698;BME280;44475;53.206;-6.106;2023-02-12T06:31:22;103440.44;;;23.89;44.89
58698;BME280;44475;53.206;-6.106;2023-02-12T06:33:49;103432.63;;;23.82;45.04
58698;BME280;44475;53.206;-6.106;2023-02-12T06:36:16;103434.47;;;23.81;45.20
58698;BME280;44475;53.206;-6.106;2023-02-12T06:38:42;103428.28;;;23.77;45.29
58698;BME280;44475;53.206;-6.106;2023-02-12T06:41:09;103426.44;;;23.78;45.38
58698;BME280;44475;53.206;-6.106;2023-02-12T06:43:35;103420.63;;;23.84;45.21
58698;BME280;44475;53.206;-6.106;2023-02-12T06:46:02;103417.00;;;23.84;45.32
58698;BME280;44475;53.206;-6.106;2023-02-12T06:48:29;103415.31;;;23.81;45.01
58698;BME280;44475;53.206;-6.106;2023-02-12T06:50:55;103420.84;;;23.79;45.09
58698;BME280;44475;53.206;-6.106;2023-02-12T06:53:21;103413.53;;;23.80;45.25
58698;BME280;44475;53.206;-6.106;2023-02-12T06:55:48;103416.88;;;23.87;45.05
58698;BME280;44475;53.206;-6.106;2023-02-12T06:58:14;103417.50;;;23.92;44.85
58698;BME280;44475;53.206;-6.106;2023-02-12T07:00:40;103412.34;;;23.86;45.07
58698;BME280;44475;53.206;-6.106;2023-02-12T07:03:06;103415.00;;;23.87;44.92
58698;BME280;44475;53.206;-6.106;2023-02-12T07:05:32;103418.88;;;23.83;44.88
58698;BME280;44475;53.206;-6.106;2023-02-12T07:08:02;103414.84;;;23.91;44.92
58698;BME280;44475;53.206;-6.106;2023-02-12T07:10:29;103423.78;;;23.76;45.16
58698;BME280;44475;53.206;-6.106;2023-02-12T07:12:55;103417.81;;;23.86;44.91
58698;BME280;44475;53.206;-6.106;2023-02-12T07:15:21;103411.59;;;23.82;44.88
58698;BME280;44475;53.206;-6.106;2023-02-12T07:17:47;103417.97;;;23.83;45.24
58698;BME280;44475;53.206;-6.106;2023-02-12T07:20:14;103426.03;;;23.86;45.10
58698;BME280;44475;53.206;-6.106;2023-02-12T07:22:40;103433.50;;;23.82;45.06
58698;BME280;44475;53.206;-6.106;2023-02-12T07:25:06;103425.16;;;23.85;45.15
58698;BME280;44475;53.206;-6.106;2023-02-12T07:27:36;103428.84;;;23.84;45.24
58698;BME280;44475;53.206;-6.106;2023-02-12T07:30:06;103428.09;;;23.81;44.97
58698;BME280;44475;53.206;-6.106;2023-02-12T07:32:33;103428.34;;;23.76;45.42
58698;BME280;44475;53.206;-6.106;2023-02-12T07:35:00;103426.94;;;23.86;45.06
58698;BME280;44475;53.206;-6.106;2023-02-12T07:37:26;103433.44;;;23.84;44.79
58698;BME280;44475;53.206;-6.106;2023-02-12T07:39:52;103433.22;;;23.88;45.00
58698;BME280;44475;53.206;-6.106;2023-02-12T07:42:18;103435.16;;;23.86;45.07
58698;BME280;44475;53.206;-6.106;2023-02-12T07:44:48;103435.56;;;23.96;45.00
58698;BME280;44475;53.206;-6.106;2023-02-12T07:47:15;103438.53;;;23.92;44.97
58698;BME280;44475;53.206;-6.106;2023-02-12T07:49:42;103449.94;;;23.82;44.88
58698;BME280;44475;53.206;-6.106;2023-02-12T07:52:08;103444.88;;;23.92;44.77
58698;BME280;44475;53.206;-6.106;2023-02-12T07:54:34;103447.69;;;23.91;44.85
58698;BME280;44475;53.206;-6.106;2023-02-12T07:57:00;103449.31;;;23.95;44.70
58698;BME280;44475;53.206;-6.106;2023-02-12T07:59:27;103452.00;;;23.96;44.55
58698;BME280;44475;53.206;-6.106;2023-02-12T08:01:54;103452.63;;;24.02;44.40
58698;BME280;44475;53.206;-6.106;2023-02-12T08:04:23;103456.59;;;23.96;44.61
58698;BME280;44475;53.206;-6.106;2023-02-12T08:06:51;103458.97;;;23.84;44.79
58698;BME280;44475;53.206;-6.106;2023-02-12T08:09:26;103464.84;;;23.76;45.10
58698;BME280;44475;53.206;-6.106;2023-02-12T08:11:53;103460.88;;;23.82;45.10
58698;BME280;44475;53.206;-6.106;2023-02-12T08:14:20;103460.50;;;23.90;44.59
58698;BME280;44475;53.206;-6.106;2023-02-12T08:16:48;103460.44;;;23.92;44.55
58698;BME280;44475;53.206;-6.106;2023-02-12T08:19:15;103460.88;;;23.82;44.77
58698;BME280;44475;53.206;-6.106;2023-02-12T08:21:42;103458.22;;;23.81;45.00
58698;BME280;44475;53.206;-6.106;2023-02-12T08:24:09;103452.31;;;23.71;45.09
58698;BME280;44475;53.206;-6.106;2023-02-12T08:26:38;103460.59;;;23.88;44.91
58698;BME280;44475;53.206;-6.106;2023-02-12T08:29:13;103463.56;;;23.84;44.90
58698;BME280;44475;53.206;-6.106;2023-02-12T08:31:42;103476.13;;;23.88;44.88
58698;BME280;44475;53.206;-6.106;2023-02-12T08:34:21;103468.50;;;23.95;44.78
58698;BME280;44475;53.206;-6.106;2023-02-12T08:36:49;103470.53;;;23.72;45.11
58698;BME280;44475;53.206;-6.106;2023-02-12T08:39:17;103472.16;;;23.76;44.92
58698;BME280;44475;53.206;-6.106;2023-02-12T08:41:43;103473.47;;;23.86;45.01
58698;BME280;44475;53.206;-6.106;2023-02-12T08:44:11;103469.41;;;23.76;45.10
58698;BME280;44475;53.206;-6.106;2023-02-12T08:46:42;103468.34;;;23.78;45.20
58698;BME280;44475;53.206;-6.106;2023-02-12T08:49:12;103468.22;;;23.82;44.77
58698;BME280;44475;53.206;-6.106;2023-02-12T08:51:43;103469.25;;;23.79;44.89
58698;BME280;44475;53.206;-6.106;2023-02-12T08:54:12;103470.88;;;23.83;44.84
58698;BME280;44475;53.206;-6.106;2023-02-12T08:56:38;103464.66;;;23.79;44.69
58698;BME280;44475;53.206;-6.106;2023-02-12T08:59:07;103461.72;;;23.84;44.94
58698;BME280;44475;53.206;-6.106;2023-02-12T09:01:35;103468.88;;;23.87;44.81
58698;BME280;44475;53.206;-6.106;2023-02-12T09:04:07;103463.41;;;23.87;44.67
58698;BME280;44475;53.206;-6.106;2023-02-12T09:06:38;103461.91;;;23.79;45.05
58698;BME280;44475;53.206;-6.106;2023-02-12T09:09:04;103463.25;;;23.90;44.98
58698;BME280;44475;53.206;-6.106;2023-02-12T09:11:33;103468.47;;;23.77;45.06
58698;BME280;44475;53.206;-6.106;2023-02-12T09:14:02;103463.88;;;23.77;44.99
58698;BME280;44475;53.206;-6.106;2023-02-12T09:16:30;103464.19;;;23.89;44.89
58698;BME280;44475;53.206;-6.106;2023-02-12T09:18:57;103464.06;;;23.92;44.84
58698;BME280;44475;53.206;-6.106;2023-02-12T09:21:24;103462.19;;;23.93;44.64
58698;BME280;44475;53.206;-6.106;2023-02-12T09:23:50;103462.44;;;23.88;44.73
58698;BME280;44475;53.206;-6.106;2023-02-12T09:26:21;103460.75;;;23.85;44.86
58698;BME280;44475;53.206;-6.106;2023-02-12T09:28:49;103457.63;;;23.93;44.94
58698;BME280;44475;53.206;-6.106;2023-02-12T09:31:21;103458.72;;;23.89;44.96
58698;BME280;44475;53.206;-6.106;2023-02-12T09:33:54;103451.41;;;23.89;44.87
58698;BME280;44475;53.206;-6.106;2023-02-12T09:36:20;103443.56;;;23.82;44.77
58698;BME280;44475;53.206;-6.106;2023-02-12T09:38:47;103438.13;;;23.99;44.79
58698;BME280;44475;53.206;-6.106;2023-02-12T09:44:15;103439.66;;;23.87;44.76
58698;BME280;44475;53.206;-6.106;2023-02-12T09:52:02;103401.88;;;23.57;45.13
58698;BME280;44475;53.206;-6.106;2023-02-12T09:54:37;103429.66;;;23.86;44.85
58698;BME280;44475;53.206;-6.106;2023-02-12T09:57:09;103422.84;;;23.95;44.82
58698;BME280;44475;53.206;-6.106;2023-02-12T10:00:08;103419.84;;;24.00;44.80
58698;BME280;44475;53.206;-6.106;2023-02-12T10:02:36;103432.91;;;23.95;44.90
58698;BME280;44475;53.206;-6.106;2023-02-12T10:05:04;103419.28;;;23.93;44.75
58698;BME280;44475;53.206;-6.106;2023-02-12T10:19:04;103412.63;;;23.99;44.74
58698;BME280;44475;53.206;-6.106;2023-02-12T10:21:48;103410.03;;;23.96;44.71
58698;BME280;44475;53.206;-6.106;2023-02-12T10:26:54;103403.59;;;23.97;44.86
58698;BME280;44475;53.206;-6.106;2023-02-12T10:29:26;103407.38;;;23.94;45.02
58698;BME280;44475;53.206;-6.106;2023-02-12T10:32:24;103404.84;;;23.89;44.84
58698;BME280;44475;53.206;-6.106;2023-02-12T10:34:52;103411.47;;;24.03;44.35
58698;BME280;44475;53.206;-6.106;2023-02-12T10:37:41;103416.00;;;24.04;44.46
58698;BME280;44475;53.206;-6.106;2023-02-12T10:40:25;103410.38;;;24.07;44.58
58698;BME280;44475;53.206;-6.106;2023-02-12T10:42:53;103412.28;;;24.05;44.63
58698;BME280;44475;53.206;-6.106;2023-02-12T10:53:25;103404.25;;;23.65;45.41
58698;BME280;44475;53.206;-6.106;2023-02-12T10:56:20;103412.91;;;23.75;45.31
58698;BME280;44475;53.206;-6.106;2023-02-12T11:01:39;103399.22;;;23.93;45.05
58698;BME280;44475;53.206;-6.106;2023-02-12T11:07:01;103400.59;;;24.02;44.70
58698;BME280;44475;53.206;-6.106;2023-02-12T11:09:33;103398.81;;;23.83;44.95
58698;BME280;44475;53.206;-6.106;2023-02-12T11:12:01;103399.06;;;23.96;44.84
58698;BME280;44475;53.206;-6.106;2023-02-12T11:14:28;103397.09;;;23.80;45.64
58698;BME280;44475;53.206;-6.106;2023-02-12T11:16:57;103399.38;;;23.89;45.23
58698;BME280;44475;53.206;-6.106;2023-02-12T11:19:30;103399.31;;;23.91;45.01
58698;BME280;44475;53.206;-6.106;2023-02-12T11:22:11;103402.03;;;23.91;45.21
58698;BME280;44475;53.206;-6.106;2023-02-12T11:24:44;103414.28;;;24.02;44.79
58698;BME280;44475;53.206;-6.106;2023-02-12T11:27:23;103401.22;;;23.89;45.18
58698;BME280;44475;53.206;-6.106;2023-02-12T11:30:11;103391.09;;;23.91;45.38
58698;BME280;44475;53.206;-6.106;2023-02-12T11:32:38;103404.22;;;24.02;44.74
58698;BME280;44475;53.206;-6.106;2023-02-12T11:37:41;103381.03;;;23.92;45.07
58698;BME280;44475;53.206;-6.106;2023-02-12T11:40:17;103382.50;;;23.99;44.99
58698;BME280;44475;53.206;-6.106;2023-02-12T11:42:52;103389.22;;;23.92;45.05
58698;BME280;44475;53.206;-6.106;2023-02-12T11:45:21;103370.19;;;24.08;44.71
58698;BME280;44475;53.206;-6.106;2023-02-12T11:47:50;103375.94;;;24.02;44.46
58698;BME280;44475;53.206;-6.106;2023-02-12T11:50:28;103371.78;;;23.94;44.94
58698;BME280;44475;53.206;-6.106;2023-02-12T11:53:05;103369.09;;;23.93;44.95
58698;BME280;44475;53.206;-6.106;2023-02-12T11:55:37;103372.91;;;24.08;44.55
58698;BME280;44475;53.206;-6.106;2023-02-12T11:58:14;103369.66;;;23.99;44.86
58698;BME280;44475;53.206;-6.106;2023-02-12T12:01:03;103362.66;;;24.12;44.44
58698;BME280;44475;53.206;-6.106;2023-02-12T12:09:05;103365.75;;;23.87;44.66
58698;BME280;44475;53.206;-6.106;2023-02-12T12:14:58;103345.28;;;23.95;44.97
58698;BME280;44475;53.206;-6.106;2023-02-12T12:20:52;103347.75;;;23.82;45.26
58698;BME280;44475;53.206;-6.106;2023-02-12T12:23:28;103341.88;;;23.89;45.41
58698;BME280;44475;53.206;-6.106;2023-02-12T12:26:12;103329.56;;;23.81;45.64
58698;BME280;44475;53.206;-6.106;2023-02-12T12:28:44;103321.94;;;23.87;45.44
58698;BME280;44475;53.206;-6.106;2023-02-12T12:49:53;103308.06;;;24.08;45.27
58698;BME280;44475;53.206;-6.106;2023-02-12T12:55:13;103300.03;;;23.87;45.66
58698;BME280;44475;53.206;-6.106;2023-02-12T12:57:45;103295.09;;;23.94;45.43
58698;BME280;44475;53.206;-6.106;2023-02-12T13:06:14;103287.78;;;23.95;45.43
58698;BME280;44475;53.206;-6.106;2023-02-12T13:20:22;103280.19;;;23.82;46.01
58698;BME280;44475;53.206;-6.106;2023-02-12T13:28:59;103275.03;;;23.94;45.75
58698;BME280;44475;53.206;-6.106;2023-02-12T13:31:29;103269.41;;;23.97;45.24
58698;BME280;44475;53.206;-6.106;2023-02-12T13:34:03;103264.31;;;23.89;45.60
58698;BME280;44475;53.206;-6.106;2023-02-12T13:36:35;103258.63;;;23.94;45.40
58698;BME280;44475;53.206;-6.106;2023-02-12T13:41:55;103263.94;;;23.97;45.32
58698;BME280;44475;53.206;-6.106;2023-02-12T13:49:57;103260.63;;;24.08;45.17
58698;BME280;44475;53.206;-6.106;2023-02-12T13:52:53;103251.22;;;23.96;45.55
58698;BME280;44475;53.206;-6.106;2023-02-12T13:55:30;103246.69;;;23.95;45.50
58698;BME280;44475;53.206;-6.106;2023-02-12T14:01:08;103258.94;;;24.05;45.19
58698;BME280;44475;53.206;-6.106;2023-02-12T14:03:36;103258.03;;;24.05;45.31
58698;BME280;44475;53.206;-6.106;2023-02-12T14:06:18;103255.38;;;24.03;45.17
58698;BME280;44475;53.206;-6.106;2023-02-12T14:09:09;103259.28;;;23.99;45.39
58698;BME280;44475;53.206;-6.106;2023-02-12T14:11:47;103254.84;;;23.96;45.19
58698;BME280;44475;53.206;-6.106;2023-02-12T14:14:25;103263.06;;;23.96;45.29
58698;BME280;44475;53.206;-6.106;2023-02-12T14:16:52;103251.91;;;23.99;45.24
58698;BME280;44475;53.206;-6.106;2023-02-12T14:19:53;103256.34;;;24.02;44.95
58698;BME280;44475;53.206;-6.106;2023-02-12T14:24:53;103244.78;;;23.97;45.29
58698;BME280;44475;53.206;-6.106;2023-02-12T14:27:33;103247.59;;;23.95;45.47
58698;BME280;44475;53.206;-6.106;2023-02-12T14:30:02;103253.00;;;23.97;45.32
58698;BME280;44475;53.206;-6.106;2023-02-12T14:35:40;103245.34;;;23.86;45.87
58698;BME280;44475;53.206;-6.106;2023-02-12T14:40:47;103249.66;;;23.90;45.30
58698;BME280;44475;53.206;-6.106;2023-02-12T14:48:52;103232.63;;;23.85;45.45
58698;BME280;44475;53.206;-6.106;2023-02-12T14:51:27;103237.13;;;23.86;45.75
58698;BME280;44475;53.206;-6.106;2023-02-12T14:53:56;103245.75;;;23.96;45.56
58698;BME280;44475;53.206;-6.106;2023-02-12T14:56:24;103239.59;;;24.08;45.04
58698;BME280;44475;53.206;-6.106;2023-02-12T14:58:52;103238.56;;;23.93;45.34
58698;BME280;44475;53.206;-6.106;2023-02-12T15:01:33;103237.53;;;23.96;45.28
58698;BME280;44475;53.206;-6.106;2023-02-12T15:04:10;103249.44;;;23.95;45.40
58698;BME280;44475;53.206;-6.106;2023-02-12T15:09:50;103231.31;;;23.92;45.27
58698;BME280;44475;53.206;-6.106;2023-02-12T15:12:26;103230.44;;;23.92;45.54
58698;BME280;44475;53.206;-6.106;2023-02-12T15:15:26;103227.97;;;23.87;45.35
58698;BME280;44475;53.206;-6.106;2023-02-12T15:18:17;103226.81;;;23.91;45.64
58698;BME280;44475;53.206;-6.106;2023-02-12T15:21:00;103239.59;;;24.08;45.13
58698;BME280;44475;53.206;-6.106;2023-02-12T15:23:43;103237.25;;;24.01;45.29
58698;BME280;44475;53.206;-6.106;2023-02-12T15:26:18;103229.38;;;23.58;46.73
58698;BME280;44475;53.206;-6.106;2023-02-12T15:28:47;103230.53;;;23.72;46.88
58698;BME280;44475;53.206;-6.106;2023-02-12T15:31:19;103231.13;;;23.59;47.45
58698;BME280;44475;53.206;-6.106;2023-02-12T15:33:49;103247.75;;;23.74;47.51
58698;BME280;44475;53.206;-6.106;2023-02-12T15:36:28;103252.69;;;23.48;48.15
58698;BME280;44475;53.206;-6.106;2023-02-12T15:39:00;103249.13;;;23.83;47.90